createdAt,value
2018-09-08T00:01:04.028Z,99.90
2018-09-08T00:03:32.642Z,99.90
2018-09-08T00:06:01.051Z,99.90
2018-09-08T00:08:29.407Z,99.90
2018-09-08T00:10:57.782Z,99.90
2018-09-08T00:13:26.128Z,99.90
2018-09-08T00:15:59.863Z,99.90
2018-09-08T00:18:33.467Z,99.90
2018-09-08T00:21:07.327Z,99.90
2018-09-08T00:23:41.064Z,99.90
2018-09-08T00:26:14.682Z,99.90
2018-09-08T00:28:47.496Z,99.90
2018-09-08T00:31:18.352Z,99.90
2018-09-08T00:33:46.965Z,99.90
2018-09-08T00:36:15.675Z,99.90
2018-09-08T00:38:44.025Z,99.90
2018-09-08T00:41:12.411Z,99.90
2018-09-08T00:43:41.063Z,99.90
2018-09-08T00:46:10.407Z,99.90
2018-09-08T00:48:39.091Z,99.90
2018-09-08T00:51:07.507Z,99.90
2018-09-08T00:53:35.864Z,99.90
2018-09-08T00:56:04.631Z,99.90
2018-09-08T00:58:32.939Z,99.90
2018-09-08T01:01:01.276Z,99.90
2018-09-08T01:03:29.710Z,99.90
2018-09-08T01:05:58.046Z,99.90
2018-09-08T01:08:26.427Z,99.90
2018-09-08T01:10:54.722Z,99.90
2018-09-08T01:13:23.067Z,99.90
2018-09-08T01:15:51.399Z,99.90
2018-09-08T01:18:20.049Z,99.90
2018-09-08T01:20:48.353Z,99.90
2018-09-08T01:23:16.721Z,99.90
2018-09-08T01:25:45.168Z,99.90
2018-09-08T01:28:13.510Z,99.90
2018-09-08T01:30:41.860Z,99.90
2018-09-08T01:33:10.204Z,99.90
2018-09-08T01:35:38.499Z,99.90
2018-09-08T01:38:06.944Z,99.90
2018-09-08T01:40:35.294Z,99.90
2018-09-08T01:43:03.735Z,99.90
2018-09-08T01:45:32.120Z,99.90
2018-09-08T01:48:00.539Z,99.90
2018-09-08T01:50:28.870Z,99.90
2018-09-08T01:52:57.210Z,99.90
2018-09-08T01:55:25.572Z,99.90
2018-09-08T01:57:53.960Z,99.90
2018-09-08T02:00:22.311Z,99.90
2018-09-08T02:02:50.665Z,99.90
2018-09-08T02:05:19.015Z,99.90
2018-09-08T02:07:47.338Z,99.90
2018-09-08T02:10:15.642Z,99.90
2018-09-08T02:12:43.970Z,99.90
2018-09-08T02:15:12.364Z,99.90
2018-09-08T02:17:40.738Z,99.90
2018-09-08T02:20:09.061Z,99.90
2018-09-08T02:22:37.432Z,99.90
2018-09-08T02:25:05.939Z,99.90
2018-09-08T02:27:34.331Z,99.90
2018-09-08T02:30:02.687Z,99.90
2018-09-08T02:32:31.072Z,99.90
2018-09-08T02:34:59.403Z,99.90
2018-09-08T02:37:27.754Z,99.90
2018-09-08T02:39:56.107Z,99.90
2018-09-08T02:42:24.471Z,99.90
2018-09-08T02:44:52.879Z,99.90
2018-09-08T02:47:21.316Z,99.90
2018-09-08T02:50:00.859Z,99.90
2018-09-08T02:52:28.484Z,99.90
2018-09-08T02:54:55.751Z,99.90
2018-09-08T02:57:23.029Z,99.90
2018-09-08T02:59:50.363Z,99.90
2018-09-08T03:02:17.620Z,99.90
2018-09-08T03:04:44.902Z,99.90
2018-09-08T03:07:13.539Z,99.90
2018-09-08T03:09:42.716Z,99.90
2018-09-08T03:12:09.995Z,99.90
2018-09-08T03:14:37.644Z,99.90
2018-09-08T03:17:05.293Z,99.90
2018-09-08T03:19:32.596Z,99.90
2018-09-08T03:22:00.207Z,99.90
2018-09-08T03:24:27.484Z,99.90
2018-09-08T03:26:54.828Z,99.90
2018-09-08T03:29:22.099Z,99.90
2018-09-08T03:31:49.348Z,99.90
2018-09-08T03:34:16.617Z,99.90
2018-09-08T03:36:43.874Z,99.90
2018-09-08T03:39:11.163Z,99.90
2018-09-08T03:41:38.424Z,99.90
2018-09-08T03:44:05.803Z,99.90
2018-09-08T03:46:33.065Z,99.90
2018-09-08T03:49:00.596Z,99.90
2018-09-08T03:51:27.860Z,99.90
2018-09-08T03:53:55.144Z,99.90
2018-09-08T03:56:22.412Z,99.90
2018-09-08T03:58:49.711Z,99.90
2018-09-08T04:01:17.028Z,99.90
2018-09-08T04:03:45.376Z,99.90
2018-09-08T04:06:13.756Z,99.90
2018-09-08T04:08:42.397Z,99.90
2018-09-08T04:11:10.826Z,99.90
2018-09-08T04:13:39.150Z,99.90
2018-09-08T04:16:07.620Z,99.90
2018-09-08T04:18:36.244Z,99.90
2018-09-08T04:21:04.608Z,99.90
2018-09-08T04:23:32.922Z,99.90
2018-09-08T04:26:02.124Z,99.90
2018-09-08T04:28:31.198Z,99.90
2018-09-08T04:30:59.778Z,99.90
2018-09-08T04:33:28.133Z,99.90
2018-09-08T04:35:56.471Z,99.90
2018-09-08T04:38:24.918Z,99.90
2018-09-08T04:40:53.333Z,99.90
2018-09-08T04:43:21.645Z,99.90
2018-09-08T04:45:50.011Z,99.90
2018-09-08T04:48:18.827Z,99.90
2018-09-08T04:50:47.219Z,99.90
2018-09-08T04:53:15.604Z,99.90
2018-09-08T04:55:43.957Z,99.90
2018-09-08T04:58:12.627Z,99.90
2018-09-08T05:00:41.020Z,99.90
2018-09-08T05:03:09.337Z,99.90
2018-09-08T05:05:37.699Z,99.90
2018-09-08T05:08:06.120Z,99.90
2018-09-08T05:10:34.499Z,99.90
2018-09-08T05:13:02.831Z,99.90
2018-09-08T05:15:31.188Z,99.90
2018-09-08T05:18:00.420Z,99.90
2018-09-08T05:20:28.828Z,99.90
2018-09-08T05:22:57.192Z,99.90
2018-09-08T05:25:25.540Z,99.90
2018-09-08T05:27:54.216Z,99.90
2018-09-08T05:30:22.568Z,99.90
2018-09-08T05:32:50.928Z,99.90
2018-09-08T05:35:19.276Z,99.90
2018-09-08T05:37:47.858Z,99.90
2018-09-08T05:40:16.224Z,99.90
2018-09-08T05:42:44.594Z,99.90
2018-09-08T05:45:12.952Z,99.90
2018-09-08T05:47:41.699Z,99.90
2018-09-08T05:50:10.068Z,99.90
2018-09-08T05:52:38.402Z,99.90
2018-09-08T05:55:06.758Z,99.90
2018-09-08T05:57:35.130Z,99.90
2018-09-08T06:00:03.516Z,99.90
2018-09-08T06:02:31.878Z,99.90
2018-09-08T06:05:00.406Z,99.90
2018-09-08T06:07:28.701Z,99.90
2018-09-08T06:09:57.068Z,99.90
2018-09-08T06:12:25.448Z,99.90
2018-09-08T06:14:53.819Z,99.90
2018-09-08T06:17:22.743Z,99.90
2018-09-08T06:19:51.168Z,99.10
2018-09-08T06:22:19.661Z,98.60
2018-09-08T06:24:48.037Z,98.20
2018-09-08T06:27:16.544Z,97.80
2018-09-08T06:29:44.892Z,97.60
2018-09-08T06:32:13.287Z,97.90
2018-09-08T06:34:42.051Z,97.60
2018-09-08T06:37:10.367Z,96.80
2018-09-08T06:39:38.755Z,96.70
2018-09-08T06:42:07.169Z,96.00
2018-09-08T06:44:35.534Z,94.70
2018-09-08T06:47:03.995Z,94.50
2018-09-08T06:49:32.367Z,93.60
2018-09-08T06:52:01.205Z,93.30
2018-09-08T06:54:29.627Z,92.90
2018-09-08T06:56:57.961Z,92.80
2018-09-08T06:59:26.321Z,92.00
2018-09-08T07:01:54.679Z,91.50
2018-09-08T07:04:23.016Z,92.30
2018-09-08T07:06:51.404Z,91.00
2018-09-08T07:09:20.785Z,91.60
2018-09-08T07:11:49.147Z,89.50
2018-09-08T07:14:17.566Z,90.30
2018-09-08T07:16:46.187Z,91.90
2018-09-08T07:19:14.550Z,91.50
2018-09-08T07:21:42.908Z,89.50
2018-09-08T07:24:11.364Z,87.00
2018-09-08T07:26:39.716Z,88.00
2018-09-08T07:29:08.116Z,84.90
2018-09-08T07:31:36.476Z,87.70
2018-09-08T07:34:04.930Z,86.20
2018-09-08T07:36:33.281Z,85.10
2018-09-08T07:39:01.675Z,85.70
2018-09-08T07:41:30.024Z,80.50
2018-09-08T07:43:58.403Z,78.50
2018-09-08T07:46:26.764Z,78.90
2018-09-08T07:48:55.158Z,74.70
2018-09-08T07:51:23.508Z,76.50
2018-09-08T07:53:52.023Z,74.50
2018-09-08T07:56:20.346Z,75.50
2018-09-08T07:58:48.692Z,77.10
2018-09-08T08:01:17.081Z,75.20
2018-09-08T08:03:45.796Z,75.90
2018-09-08T08:06:14.180Z,72.90
2018-09-08T08:08:42.540Z,72.20
2018-09-08T08:11:11.257Z,73.80
2018-09-08T08:13:39.712Z,76.20
2018-09-08T08:16:08.116Z,74.00
2018-09-08T08:18:36.513Z,69.30
2018-09-08T08:21:05.108Z,71.00
2018-09-08T08:23:33.741Z,68.30
2018-09-08T08:26:02.130Z,73.20
2018-09-08T08:28:30.499Z,69.30
2018-09-08T08:30:58.996Z,67.60
2018-09-08T08:33:27.338Z,68.70
2018-09-08T08:35:55.789Z,67.00
2018-09-08T08:38:24.267Z,61.00
2018-09-08T08:40:52.988Z,64.80
2018-09-08T08:43:21.433Z,61.40
2018-09-08T08:45:49.827Z,61.70
2018-09-08T08:48:18.198Z,58.70
2018-09-08T08:50:57.832Z,59.70
2018-09-08T08:54:31.079Z,62.60
2018-09-08T08:56:59.460Z,67.20
2018-09-08T08:59:27.834Z,66.10
2018-09-08T09:01:56.179Z,59.90
2018-09-08T09:04:24.566Z,58.20
2018-09-08T09:06:52.986Z,55.60
2018-09-08T09:09:21.319Z,55.70
2018-09-08T09:11:49.970Z,56.40
2018-09-08T09:14:18.068Z,57.80
2018-09-08T09:16:46.765Z,60.90
2018-09-08T09:19:39.563Z,60.90
2018-09-08T09:22:20.433Z,62.60
2018-09-08T09:24:58.820Z,60.40
2018-09-08T09:27:27.528Z,58.40
2018-09-08T09:29:56.161Z,54.70
2018-09-08T09:32:24.565Z,55.10
2018-09-08T09:34:52.961Z,54.30
2018-09-08T09:37:21.389Z,53.40
2018-09-08T09:39:50.366Z,51.70
2018-09-08T09:42:18.763Z,56.30
2018-09-08T09:44:47.167Z,58.30
2018-09-08T09:47:15.556Z,54.90
2018-09-08T09:49:43.885Z,53.20
2018-09-08T09:52:12.322Z,53.00
2018-09-08T09:54:40.921Z,49.30
2018-09-08T09:57:09.352Z,49.50
2018-09-08T09:59:37.747Z,49.60
2018-09-08T10:02:13.287Z,51.40
2018-09-08T10:04:41.740Z,53.90
2018-09-08T10:07:11.008Z,52.70
2018-09-08T10:09:41.159Z,52.50
2018-09-08T10:12:09.587Z,52.40
2018-09-08T10:14:37.981Z,55.10
2018-09-08T10:17:06.386Z,55.10
2018-09-08T10:19:34.791Z,54.80
2018-09-08T10:22:03.242Z,55.30
2018-09-08T10:24:31.634Z,57.60
2018-09-08T10:27:00.043Z,54.80
2018-09-08T10:29:28.460Z,54.50
2018-09-08T10:31:56.824Z,54.70
2018-09-08T10:34:25.208Z,50.30
2018-09-08T10:36:53.910Z,53.10
2018-09-08T10:39:22.384Z,51.30
2018-09-08T10:41:50.787Z,48.60
2018-09-08T10:44:19.162Z,50.30
2018-09-08T10:46:47.545Z,46.90
2018-09-08T10:49:16.421Z,53.10
2018-09-08T10:52:51.824Z,52.30
2018-09-08T10:55:20.187Z,47.80
2018-09-08T10:57:48.570Z,47.80
2018-09-08T11:00:17.237Z,46.70
2018-09-08T11:02:45.947Z,49.00
2018-09-08T11:05:14.156Z,51.30
2018-09-08T11:07:42.533Z,49.40
2018-09-08T11:10:10.913Z,48.70
2018-09-08T11:12:39.285Z,42.70
2018-09-08T11:15:09.010Z,45.80
2018-09-08T11:17:37.405Z,45.80
2018-09-08T11:20:06.655Z,45.20
2018-09-08T11:22:35.040Z,48.20
2018-09-08T11:25:03.505Z,48.30
2018-09-08T11:27:31.877Z,46.50
2018-09-08T11:30:00.284Z,46.30
2018-09-08T11:32:28.637Z,49.10
2018-09-08T11:34:57.029Z,48.30
2018-09-08T11:37:25.412Z,48.70
2018-09-08T11:39:53.775Z,48.40
2018-09-08T11:42:22.147Z,48.40
2018-09-08T11:44:50.572Z,48.10
2018-09-08T11:47:18.892Z,48.60
2018-09-08T11:49:47.277Z,48.50
2018-09-08T11:52:15.681Z,49.90
2018-09-08T11:54:44.040Z,50.20
2018-09-08T11:57:12.412Z,49.00
2018-09-08T11:59:41.057Z,48.10
2018-09-08T12:02:09.388Z,50.50
2018-09-08T12:04:37.736Z,49.30
2018-09-08T12:07:06.332Z,47.90
2018-09-08T12:09:34.705Z,50.40
2018-09-08T12:12:03.136Z,49.50
2018-09-08T12:14:31.500Z,44.20
2018-09-08T12:17:00.046Z,45.00
2018-09-08T12:19:28.450Z,45.50
2018-09-08T12:21:56.793Z,46.00
2018-09-08T12:24:25.541Z,42.50
2018-09-08T12:26:53.909Z,46.70
2018-09-08T12:29:22.285Z,47.70
2018-09-08T12:31:50.680Z,51.60
2018-09-08T12:34:19.083Z,47.00
2018-09-08T12:36:47.462Z,49.40
2018-09-08T12:39:15.832Z,50.20
2018-09-08T12:41:44.173Z,47.70
2018-09-08T12:44:12.860Z,51.00
2018-09-08T12:46:41.291Z,51.90
2018-09-08T12:49:09.662Z,49.60
2018-09-08T12:51:38.094Z,51.00
2018-09-08T12:54:06.463Z,51.10
2018-09-08T12:56:34.889Z,50.50
2018-09-08T12:59:04.160Z,50.30
2018-09-08T13:01:32.509Z,49.70
2018-09-08T13:04:00.875Z,52.20
2018-09-08T13:06:29.263Z,53.50
2018-09-08T13:08:57.615Z,55.20
2018-09-08T13:11:26.002Z,56.00
2018-09-08T13:13:54.407Z,56.90
2018-09-08T13:16:22.782Z,55.10
2018-09-08T13:18:51.227Z,54.00
2018-09-08T13:21:19.575Z,52.80
2018-09-08T13:23:47.972Z,52.60
2018-09-08T13:26:16.698Z,51.10
2018-09-08T13:28:45.107Z,49.40
2018-09-08T13:31:13.471Z,51.60
2018-09-08T13:33:42.226Z,52.30
2018-09-08T13:36:10.560Z,51.40
2018-09-08T13:38:38.928Z,50.80
2018-09-08T13:41:07.325Z,51.00
2018-09-08T13:43:35.703Z,51.30
2018-09-08T13:46:04.225Z,52.40
2018-09-08T13:48:32.589Z,53.10
2018-09-08T13:51:00.987Z,52.10
2018-09-08T13:53:29.393Z,50.50
2018-09-08T13:55:57.880Z,51.70
2018-09-08T13:58:26.460Z,50.00
2018-09-08T14:00:54.834Z,50.70
2018-09-08T14:03:23.178Z,51.40
2018-09-08T14:05:51.613Z,51.30
2018-09-08T14:08:20.025Z,48.50
2018-09-08T14:10:48.406Z,49.60
2018-09-08T14:13:16.774Z,47.70
2018-09-08T14:15:45.302Z,51.90
2018-09-08T14:18:13.703Z,48.60
2018-09-08T14:20:42.221Z,49.70
2018-09-08T14:23:10.630Z,49.50
2018-09-08T14:25:39.025Z,50.20
2018-09-08T14:28:07.587Z,50.00
2018-09-08T14:30:35.956Z,50.40
2018-09-08T14:33:04.454Z,50.20
2018-09-08T14:35:32.911Z,51.30
2018-09-08T14:38:01.338Z,50.20
2018-09-08T14:40:29.750Z,52.80
2018-09-08T14:42:58.143Z,51.20
2018-09-08T14:45:26.640Z,53.50
2018-09-08T14:47:55.341Z,49.00
2018-09-08T14:50:23.764Z,50.40
2018-09-08T14:52:52.176Z,50.00
2018-09-08T14:55:20.584Z,50.70
2018-09-08T14:57:49.052Z,48.30
2018-09-08T15:00:17.735Z,49.20
2018-09-08T15:02:46.121Z,50.90
2018-09-08T15:05:14.465Z,50.50
2018-09-08T15:07:43.057Z,52.20
2018-09-08T15:10:11.950Z,51.80
2018-09-08T15:12:40.440Z,50.60
2018-09-08T15:15:08.847Z,50.80
2018-09-08T15:17:37.219Z,52.30
2018-09-08T15:20:05.881Z,52.50
2018-09-08T15:22:34.291Z,53.00
2018-09-08T15:25:02.696Z,53.40
2018-09-08T15:27:31.092Z,55.60
2018-09-08T15:29:59.471Z,57.70
2018-09-08T15:32:28.105Z,54.90
2018-09-08T15:34:56.527Z,57.70
2018-09-08T15:37:24.959Z,55.90
2018-09-08T15:39:53.581Z,56.70
2018-09-08T15:42:21.964Z,56.50
2018-09-08T15:44:50.959Z,57.30
2018-09-08T15:47:19.377Z,58.10
2018-09-08T15:49:47.810Z,56.30
2018-09-08T15:52:16.195Z,59.80
2018-09-08T15:54:44.630Z,57.50
2018-09-08T15:57:13.041Z,59.80
2018-09-08T15:59:41.444Z,59.50
2018-09-08T16:02:09.843Z,61.20
2018-09-08T16:04:38.264Z,62.20
2018-09-08T16:07:06.685Z,62.60
2018-09-08T16:09:35.085Z,61.50
2018-09-08T16:12:03.519Z,61.70
2018-09-08T16:14:31.923Z,62.70
2018-09-08T16:17:00.540Z,64.70
2018-09-08T16:19:29.005Z,65.20
2018-09-08T16:21:57.402Z,63.40
2018-09-08T16:24:25.815Z,65.20
2018-09-08T16:26:54.169Z,63.00
2018-09-08T16:29:22.554Z,65.40
2018-09-08T16:31:50.928Z,62.20
2018-09-08T16:34:19.749Z,63.00
2018-09-08T16:36:48.238Z,66.60
2018-09-08T16:39:16.605Z,67.30
2018-09-08T16:41:44.995Z,64.70
2018-09-08T16:44:13.424Z,66.20
2018-09-08T16:46:41.759Z,67.00
2018-09-08T16:49:10.166Z,67.20
2018-09-08T16:51:38.583Z,68.20
2018-09-08T16:54:07.005Z,68.50
2018-09-08T16:56:35.429Z,71.30
2018-09-08T16:59:04.111Z,69.00
2018-09-08T17:01:32.482Z,69.50
2018-09-08T17:04:00.814Z,71.20
2018-09-08T17:06:29.615Z,70.40
2018-09-08T17:08:58.059Z,73.20
2018-09-08T17:11:26.442Z,73.10
2018-09-08T17:13:54.797Z,73.70
2018-09-08T17:16:23.443Z,72.80
2018-09-08T17:18:51.839Z,73.90
2018-09-08T17:21:20.227Z,74.60
2018-09-08T17:23:48.582Z,73.90
2018-09-08T17:26:16.935Z,74.10
2018-09-08T17:28:45.353Z,76.40
2018-09-08T17:31:14.246Z,75.00
2018-09-08T17:33:42.627Z,74.80
2018-09-08T17:36:10.960Z,75.70
2018-09-08T17:38:39.354Z,74.90
2018-09-08T17:41:07.767Z,75.80
2018-09-08T17:43:36.132Z,76.10
2018-09-08T17:46:04.742Z,79.00
2018-09-08T17:48:33.094Z,77.10
2018-09-08T17:51:01.444Z,77.50
2018-09-08T17:53:29.840Z,77.60
2018-09-08T17:55:58.370Z,78.40
2018-09-08T17:58:26.906Z,78.70
2018-09-08T18:00:55.458Z,79.00
2018-09-08T18:03:23.836Z,78.70
2018-09-08T18:05:52.318Z,80.00
2018-09-08T18:08:26.417Z,79.30
2018-09-08T18:10:55.819Z,79.50
2018-09-08T18:13:25.002Z,80.40
2018-09-08T18:15:53.696Z,81.60
2018-09-08T18:18:22.516Z,81.50
2018-09-08T18:20:51.134Z,82.60
2018-09-08T18:23:19.476Z,83.20
2018-09-08T18:25:47.952Z,83.00
2018-09-08T18:28:16.320Z,82.70
2018-09-08T18:30:45.164Z,84.70
2018-09-08T18:33:14.061Z,84.30
2018-09-08T18:35:42.375Z,83.20
2018-09-08T18:38:11.940Z,83.30
2018-09-08T18:40:40.285Z,84.70
2018-09-08T18:43:08.685Z,83.70
2018-09-08T18:45:37.337Z,84.40
2018-09-08T18:48:05.709Z,85.00
2018-09-08T18:50:34.167Z,84.40
2018-09-08T18:53:02.531Z,84.60
2018-09-08T18:55:30.959Z,85.20
2018-09-08T18:57:59.350Z,85.70
2018-09-08T19:00:27.735Z,85.30
2018-09-08T19:02:56.103Z,85.90
2018-09-08T19:05:24.527Z,86.70
2018-09-08T19:07:53.797Z,86.00
2018-09-08T19:10:22.125Z,86.30
2018-09-08T19:12:50.493Z,87.50
2018-09-08T19:15:19.085Z,89.30
2018-09-08T19:17:47.447Z,89.10
2018-09-08T19:20:21.125Z,89.10
2018-09-08T19:22:50.063Z,89.50
2018-09-08T19:25:18.515Z,89.30
2018-09-08T19:27:46.962Z,90.40
2018-09-08T19:30:15.361Z,90.30
2018-09-08T19:32:43.747Z,90.50
2018-09-08T19:35:17.658Z,89.50
2018-09-08T19:37:46.066Z,90.10
2018-09-08T19:40:19.838Z,90.20
2018-09-08T19:42:48.229Z,90.70
2018-09-08T19:45:16.604Z,91.10
2018-09-08T19:47:50.612Z,91.00
2018-09-08T19:50:19.343Z,91.40
2018-09-08T19:52:52.984Z,92.20
2018-09-08T19:55:22.058Z,91.80
2018-09-08T19:57:55.722Z,92.10
2018-09-08T20:00:24.189Z,91.70
2018-09-08T20:02:52.599Z,92.20
2018-09-08T20:05:20.972Z,91.80
2018-09-08T20:07:49.416Z,92.30
2018-09-08T20:10:17.999Z,92.50
2018-09-08T20:12:46.416Z,92.20
2018-09-08T20:15:14.905Z,92.60
2018-09-08T20:17:43.359Z,92.10
2018-09-08T20:20:12.582Z,92.30
2018-09-08T20:22:40.960Z,92.60
2018-09-08T20:25:09.338Z,92.10
2018-09-08T20:27:37.820Z,92.30
2018-09-08T20:30:07.173Z,92.40
2018-09-08T20:32:35.600Z,92.60
2018-09-08T20:35:04.180Z,92.40
2018-09-08T20:37:32.581Z,92.70
2018-09-08T20:40:01.046Z,91.80
2018-09-08T20:42:29.556Z,92.70
2018-09-08T20:44:58.098Z,92.10
2018-09-08T20:47:26.648Z,91.40
2018-09-08T20:49:55.058Z,91.40
2018-09-08T20:52:23.505Z,91.00
2018-09-08T20:54:51.908Z,91.00
2018-09-08T20:57:20.300Z,91.00
2018-09-08T20:59:48.709Z,90.60
2018-09-08T21:02:17.343Z,90.70
2018-09-08T21:04:45.716Z,91.00
2018-09-08T21:07:14.146Z,91.00
2018-09-08T21:09:42.517Z,90.80
2018-09-08T21:12:10.886Z,91.10
2018-09-08T21:14:39.882Z,91.30
2018-09-08T21:17:08.654Z,91.50
2018-09-08T21:19:37.061Z,92.00
2018-09-08T21:22:05.490Z,91.20
2018-09-08T21:24:33.839Z,91.40
2018-09-08T21:27:02.238Z,91.60
2018-09-08T21:29:32.555Z,91.00
2018-09-08T21:32:00.915Z,91.70
2018-09-08T21:34:29.275Z,92.20
2018-09-08T21:36:58.211Z,92.50
2018-09-08T21:39:26.577Z,92.70
2018-09-08T21:41:55.023Z,93.20
2018-09-08T21:44:23.881Z,93.20
2018-09-08T21:46:52.913Z,94.20
2018-09-08T21:49:21.339Z,93.90
2018-09-08T21:51:49.679Z,93.90
2018-09-08T21:54:18.047Z,94.10
2018-09-08T21:56:46.471Z,94.00
2018-09-08T21:59:14.835Z,94.10
2018-09-08T22:01:43.216Z,94.20
2018-09-08T22:04:11.565Z,94.30
2018-09-08T22:06:39.996Z,93.30
2018-09-08T22:09:09.831Z,93.10
2018-09-08T22:11:38.195Z,92.80
2018-09-08T22:14:09.329Z,93.60
2018-09-08T22:16:37.700Z,93.90
2018-09-08T22:19:06.088Z,94.40
2018-09-08T22:21:34.415Z,94.70
2018-09-08T22:24:07.617Z,94.30
2018-09-08T22:26:38.588Z,94.50
2018-09-08T22:29:07.016Z,95.50
2018-09-08T22:31:35.972Z,95.10
2018-09-08T22:34:04.364Z,94.40
2018-09-08T22:36:32.678Z,94.40
2018-09-08T22:39:01.065Z,94.60
2018-09-08T22:41:29.502Z,95.00
2018-09-08T22:43:57.858Z,94.80
2018-09-08T22:46:26.208Z,94.80
2018-09-08T22:48:54.543Z,95.00
2018-09-08T22:51:23.046Z,94.60
2018-09-08T22:53:52.959Z,94.30
2018-09-08T22:56:21.412Z,94.20
2018-09-08T22:58:49.920Z,94.70
2018-09-08T23:01:18.312Z,95.00
2018-09-08T23:03:48.441Z,94.80
2018-09-08T23:06:18.900Z,95.10
2018-09-08T23:08:49.823Z,94.80
2018-09-08T23:11:24.792Z,94.90
2018-09-08T23:13:54.176Z,95.10
2018-09-08T23:16:23.129Z,93.80
2018-09-08T23:18:53.302Z,93.30
2018-09-08T23:21:22.420Z,93.50
2018-09-08T23:23:51.513Z,93.50
2018-09-08T23:26:19.961Z,93.10
2018-09-08T23:28:48.705Z,93.20
2018-09-08T23:31:17.244Z,93.20
2018-09-08T23:33:45.917Z,93.00
2018-09-08T23:36:15.967Z,93.50
2018-09-08T23:38:44.389Z,93.90
2018-09-08T23:41:12.731Z,94.40
2018-09-08T23:43:41.336Z,94.60
2018-09-08T23:46:09.799Z,94.80
2018-09-08T23:48:38.187Z,94.80
2018-09-08T23:51:07.050Z,95.10
2018-09-08T23:53:35.437Z,95.00
2018-09-08T23:56:03.829Z,95.10
2018-09-08T23:58:32.268Z,95.30
